Date,TemperatureHighF,TemperatureAvgF,TemperatureLowF,DewpointHighF,DewpointAvgF,DewpointLowF,HumidityHigh,HumidityAvg,HumidityLow,PressureMaxIn,PressureMinIn,WindSpeedMaxMPH,WindSpeedAvgMPH,GustSpeedMaxMPH,PrecipitationSumIn
2013-1-1,32,21,14,19,11,6,77,65,51,30.09,29.98,2,0,2,0.00
2013-1-2,33,25,20,14,10,6,65,52,41,30.21,30.07,4,0,4,0.00
2013-1-3,39,26,19,12,7,2,57,45,29,30.22,30.11,3,0,3,0.00
2013-1-4,45,30,18,20,14,6,65,52,35,30.14,29.99,4,0,4,0.01
2013-1-5,42,29,20,20,13,8,65,51,37,30.21,30.01,5,0,5,0.00
2013-1-6,43,23,14,17,11,5,69,59,31,30.20,29.91,2,0,2,0.01
2013-1-7,51,37,27,20,15,12,57,42,25,29.98,29.80,5,0,5,0.02
2013-1-8,50,41,28,23,19,13,61,42,31,30.16,29.78,11,1,11,0.02
2013-1-9,53,36,25,26,20,15,68,52,32,30.23,29.97,2,0,2,0.00
2013-1-10,42,31,22,25,19,14,72,62,50,29.97,29.48,2,0,2,0.00
2013-1-11,39,27,13,25,16,4,75,62,32,29.78,29.34,8,1,8,0.00
2013-1-12,20,13,8,10,4,0,75,69,61,29.96,29.78,4,0,4,0.00
2013-1-13,18,11,7,8,3,0,75,71,63,30.04,29.94,2,0,2,0.00
2013-1-14,17,10,6,6,1,-3,73,65,52,30.08,29.98,2,0,2,0.00
2013-1-15,33,20,3,17,8,-4,74,61,49,30.07,29.99,2,0,3,0.00
2013-1-16,54,39,27,27,20,14,62,47,31,30.28,30.05,5,0,5,0.01
2013-1-17,53,32,22,25,17,13,72,56,29,30.37,30.16,5,0,5,0.00
2013-1-18,58,37,24,20,13,9,63,41,17,30.16,30.00,8,1,13,0.00
2013-1-19,60,48,35,14,8,3,32,21,14,30.17,30.02,10,1,10,0.00
2013-1-20,48,35,26,17,12,7,55,39,27,30.20,30.07,8,0,8,0.00
2013-1-21,56,35,19,25,13,2,69,45,15,30.17,30.01,8,1,8,0.00
2013-1-22,62,45,33,12,4,-3,30,19,7,30.12,29.96,8,1,8,0.00
2013-1-23,62,50,30,12,7,3,34,19,10,30.14,30.05,5,0,5,0.00
2013-1-24,62,45,28,27,18,9,48,35,18,30.11,29.93,9,0,9,0.00
2013-1-25,54,41,31,30,24,19,66,51,39,30.12,30.02,2,0,2,0.00
2013-1-26,53,41,29,34,28,21,74,60,42,30.03,29.76,2,0,2,0.01
2013-1-27,59,45,35,38,31,22,83,61,40,29.78,29.71,5,1,5,0.00
2013-1-28,50,37,29,30,24,17,78,60,40,29.75,29.59,4,0,4,0.02
2013-1-29,35,28,20,23,16,8,79,62,45,29.91,29.68,3,0,3,0.00
2013-1-30,42,29,16,18,12,5,65,49,35,29.91,29.75,7,1,7,0.02
2013-1-31,49,37,27,25,19,15,64,50,32,30.08,29.84,7,1,7,0.04
2013-2-1,50,37,25,26,19,14,76,52,30,30.13,29.99,8,1,8,0.01
2013-2-2,57,38,24,27,18,13,71,47,18,30.24,30.12,8,1,8,0.00
2013-2-3,50,37,25,22,15,8,61,42,20,30.19,29.87,6,0,6,0.00
2013-2-4,56,42,31,18,12,6,43,30,16,29.94,29.82,8,1,8,0.00
2013-2-5,60,46,32,26,19,12,47,34,24,30.01,29.84,8,1,8,0.00
2013-2-6,55,43,32,32,24,18,72,48,29,30.04,29.80,6,0,6,0.02
2013-2-7,51,38,29,28,21,12,77,53,30,30.12,29.98,4,1,4,0.00
2013-2-8,53,35,22,19,12,8,60,42,18,29.98,29.71,3,0,3,0.00
2013-2-9,39,31,24,26,18,10,76,60,44,29.72,29.56,3,0,3,0.00
2013-2-10,40,31,24,22,17,11,75,59,37,30.01,29.60,4,0,4,0.00
2013-2-11,30,25,22,18,15,12,73,65,59,30.01,29.92,2,0,2,0.00
2013-2-12,45,30,15,15,8,1,68,44,18,29.99,29.94,5,0,5,0.00
2013-2-13,49,35,22,18,12,6,54,40,27,29.99,29.86,9,1,9,0.00
2013-2-14,37,29,23,22,17,12,75,63,39,30.21,29.96,4,0,4,0.00
2013-2-15,44,29,19,24,16,12,76,60,33,30.21,30.13,5,0,5,0.08
2013-2-16,56,43,23,21,17,12,70,37,22,30.14,29.94,10,2,10,0.00
2013-2-17,62,46,31,17,10,5,44,27,11,29.94,29.59,10,1,10,0.21
2013-2-18,44,34,25,18,10,3,62,40,21,30.04,29.76,10,1,10,0.00
2013-2-19,43,31,24,18,11,5,52,43,30,30.04,29.79,3,0,3,0.00
2013-2-20,40,28,23,24,16,12,77,62,42,29.80,29.64,5,0,5,0.00
2013-2-21,32,25,18,21,17,11,77,72,62,29.86,29.70,2,0,2,0.01
2013-2-22,38,27,17,23,17,11,79,67,52,29.91,29.80,5,0,5,0.01
2013-2-23,41,29,16,25,18,9,75,64,50,29.81,29.63,2,0,2,0.01
2013-2-24,31,29,27,26,24,20,86,80,75,30.05,29.73,3,0,3,0.00
2013-2-25,37,26,14,23,17,8,78,69,55,30.04,29.81,4,0,4,0.00
2013-2-26,39,29,20,30,21,13,82,73,62,30.07,29.78,3,0,3,0.00
2013-2-27,41,29,20,19,15,10,70,56,36,30.16,30.07,4,1,4,0.01
2013-2-28,46,34,20,21,15,8,66,47,33,30.17,30.09,7,1,7,0.02
2013-3-1,48,37,26,26,21,14,67,52,38,30.24,30.13,5,0,6,0.06
2013-3-2,59,44,28,33,26,21,76,52,32,30.23,30.00,6,0,6,0.00
2013-3-3,63,50,37,30,26,22,57,42,24,30.00,29.67,13,2,13,0.00
2013-3-4,49,34,23,29,22,15,75,64,40,30.15,29.68,12,1,12,0.00
2013-3-5,41,28,16,22,16,10,76,63,44,30.19,30.08,3,0,3,0.03
2013-3-6,58,38,22,34,24,16,79,60,32,30.08,29.84,3,0,3,0.00
2013-3-7,64,45,29,36,26,22,75,51,23,29.95,29.85,4,0,4,0.02
2013-3-8,50,40,31,33,28,21,71,62,49,29.97,29.70,4,0,4,0.00
2013-3-9,38,34,26,31,28,20,85,79,71,30.05,29.66,2,0,2,0.10
2013-3-10,48,35,23,25,20,15,77,58,36,30.07,29.97,4,1,4,0.14
2013-3-11,57,42,34,30,24,18,77,50,28,30.11,29.88,10,1,10,0.00
2013-3-12,38,33,28,28,25,22,81,75,66,30.24,30.10,2,0,2,0.05
2013-3-13,64,43,27,39,29,23,86,61,30,30.21,30.11,5,0,5,0.13
2013-3-14,74,53,40,34,27,18,57,40,15,30.25,30.10,3,0,3,0.00
2013-3-15,76,62,50,29,26,21,40,26,15,30.10,29.88,9,1,9,0.00
2013-3-16,58,49,43,35,30,27,59,49,33,30.01,29.81,7,0,7,0.00
2013-3-17,60,46,33,31,24,16,70,45,21,29.83,29.57,13,2,13,0.00
2013-3-18,52,42,32,18,14,8,43,32,23,29.91,29.83,10,2,10,0.00
2013-3-19,58,46,32,15,5,-8,43,20,8,30.29,29.90,16,2,16,0.00
2013-3-20,52,38,24,24,18,12,62,46,32,30.28,29.74,3,0,3,0.00
2013-3-21,62,45,36,34,22,12,57,42,22,29.82,29.56,8,1,8,0.01
2013-3-22,48,35,29,28,19,11,81,53,36,29.91,29.70,4,0,4,0.00
2013-3-23,28,24,19,23,17,11,81,74,66,30.11,29.88,2,0,2,0.00
2013-3-24,36,23,10,20,12,3,76,63,50,30.14,30.02,2,0,2,0.00
2013-3-25,37,27,18,20,15,10,75,62,45,30.18,30.11,5,1,5,0.20
2013-3-26,48,33,20,30,21,11,74,61,45,30.12,29.89,4,0,4,0.04
2013-3-27,56,42,31,37,30,24,77,64,48,30.07,29.97,3,0,3,0.00
2013-3-28,66,48,32,38,32,27,81,57,30,30.10,30.02,4,0,4,0.00
2013-3-29,68,54,42,35,31,28,60,44,25,30.10,30.02,5,1,8,0.00
2013-3-30,69,49,38,37,31,26,65,51,21,30.19,30.00,7,1,7,0.00
2013-3-31,72,54,37,36,29,21,68,44,16,30.17,29.92,5,1,5,0.00
2013-4-1,54,44,34,34,29,23,68,55,38,30.12,30.00,3,0,3,0.01
2013-4-2,42,40,37,34,32,30,85,74,67,30.10,30.03,2,0,2,0.00
2013-4-3,64,48,38,42,35,31,88,66,34,30.11,30.02,3,0,3,0.00
2013-4-4,71,53,41,39,32,28,63,47,24,30.12,29.98,5,0,5,0.01
2013-4-5,76,61,50,36,29,24,47,32,17,29.98,29.73,12,2,12,0.04
2013-4-6,70,57,45,30,26,22,42,32,21,29.94,29.85,12,1,12,0.00
2013-4-7,69,55,42,32,29,22,61,40,18,29.87,29.69,15,2,15,0.00
2013-4-8,64,48,32,37,30,26,77,52,29,29.84,29.47,7,1,7,0.07
2013-4-9,32,23,17,26,16,10,78,75,71,30.13,29.83,2,0,2,0.00
2013-4-10,33,22,10,20,13,4,76,67,54,30.10,29.84,3,0,3,0.13
2013-4-11,55,38,21,36,27,14,79,65,45,29.91,29.73,5,0,5,0.09
2013-4-12,62,46,36,37,32,28,77,60,32,29.97,29.85,4,1,4,0.00
2013-4-13,67,50,32,39,30,26,81,52,23,29.94,29.46,8,1,8,0.00
2013-4-14,52,44,37,37,22,13,72,42,22,29.76,29.56,12,2,12,0.00
2013-4-15,41,32,26,28,22,16,79,68,36,29.99,29.74,4,0,4,0.00
2013-4-16,36,30,26,28,24,20,84,78,70,29.99,29.84,2,0,2,0.00
2013-4-17,34,28,23,29,24,18,87,83,78,30.11,29.90,3,0,3,0.00
2013-4-18,39,29,17,24,18,11,80,65,47,30.10,30.03,5,0,5,0.00
2013-4-19,55,40,25,29,23,17,74,53,33,30.07,29.92,6,1,6,0.43
2013-4-20,60,48,34,36,31,24,73,53,36,30.01,29.89,6,0,6,0.00
2013-4-21,66,51,35,34,28,21,72,46,19,30.04,29.95,8,1,8,0.00
2013-4-22,52,36,26,38,27,20,81,69,45,30.24,29.88,4,0,4,0.09
2013-4-23,38,29,22,26,20,17,83,71,50,30.21,30.08,3,0,3,0.00
2013-4-24,55,40,23,30,22,16,75,52,27,30.15,30.07,7,0,7,0.11
2013-4-25,69,49,30,32,25,18,65,42,18,30.12,29.90,5,1,5,0.00
2013-4-26,70,57,44,28,24,19,47,30,16,30.20,29.99,6,1,6,0.00
2013-4-27,78,62,46,27,22,15,39,23,11,30.18,30.02,5,1,5,0.00
2013-4-28,81,67,48,31,26,20,37,23,13,30.03,29.86,8,1,8,0.00
2013-4-29,82,68,51,40,30,22,51,28,12,29.96,29.66,8,1,8,0.00
2013-4-30,63,54,38,40,34,26,79,49,25,30.02,29.68,5,1,5,0.23
2013-5-1,39,34,28,33,28,22,84,80,77,30.50,30.02,2,0,2,0.10
2013-5-2,45,38,24,29,24,18,80,59,42,30.56,30.34,3,0,3,0.66
2013-5-3,63,46,28,36,29,22,78,53,32,30.34,30.07,4,0,4,0.04
2013-5-4,62,51,37,36,30,26,66,47,33,30.19,30.07,4,0,4,0.01
2013-5-5,60,48,37,37,30,24,63,50,32,30.19,30.07,4,0,4,0.02
2013-5-6,70,56,40,39,36,32,73,49,30,30.07,29.92,5,0,5,0.00
2013-5-7,74,58,49,45,39,33,71,51,26,30.02,29.89,4,1,4,0.09
2013-5-8,62,51,47,46,41,35,88,69,53,30.09,29.96,7,1,7,0.56
2013-5-9,65,52,46,49,43,37,86,72,50,30.18,30.06,5,1,5,0.11
2013-5-10,69,56,42,45,39,35,74,54,34,30.28,30.15,6,1,6,0.00
2013-5-11,70,59,48,45,40,35,62,49,38,30.35,30.18,6,1,6,0.00
2013-5-12,82,68,52,42,38,34,59,36,21,30.22,30.09,6,1,6,0.00
2013-5-13,89,74,56,44,39,34,47,29,17,30.16,30.04,6,1,6,0.00
2013-5-14,88,73,59,43,38,35,46,30,18,30.07,29.95,16,1,16,0.01
2013-5-15,85,70,60,48,41,34,62,36,21,30.01,29.91,5,1,9,0.00
2013-5-16,85,69,55,50,43,34,67,43,19,29.98,29.82,7,1,7,0.00
2013-5-17,90,72,55,49,37,22,56,32,11,29.92,29.78,6,1,6,0.00
2013-5-18,78,69,58,39,32,21,44,26,18,29.92,29.80,13,1,13,0.00
2013-5-19,73,62,52,36,32,27,46,34,19,29.89,29.78,6,1,6,0.00
2013-5-20,66,57,50,47,41,32,72,56,42,30.02,29.86,5,0,5,0.00
2013-5-21,75,59,41,42,36,32,74,47,24,30.04,29.88,5,0,5,0.00
2013-5-22,78,62,48,48,39,31,70,45,26,30.07,29.90,4,0,4,0.00
2013-5-23,73,60,51,52,47,43,76,62,45,30.10,29.96,5,0,5,0.00
2013-5-24,84,66,47,54,45,40,80,51,23,30.01,29.92,3,0,3,0.00
2013-5-25,89,73,58,50,40,28,54,34,13,30.01,29.89,5,0,5,0.00
2013-5-26,89,73,57,39,33,24,46,25,11,29.96,29.89,5,1,5,0.00
2013-5-27,86,71,54,36,30,22,40,24,11,29.90,29.78,4,0,4,0.00
2013-5-28,79,67,53,47,38,29,51,35,21,29.88,29.62,4,0,4,0.00
2013-5-29,69,59,51,49,42,34,77,54,33,29.76,29.66,5,0,5,0.17
2013-5-30,72,60,47,38,33,26,61,38,21,29.89,29.71,7,1,7,0.00
2013-5-31,74,62,49,30,24,13,40,25,12,30.02,29.86,6,1,6,0.00
2013-6-1,72,60,48,42,36,24,58,42,31,30.20,30.02,3,0,3,0.00
2013-6-2,84,67,50,44,37,31,52,36,19,30.20,29.85,4,0,4,0.00
2013-6-3,90,73,54,47,33,26,46,25,11,29.97,29.79,6,1,6,0.00
2013-6-4,72,63,54,50,43,30,73,49,28,30.22,29.96,3,0,4,0.13
2013-6-5,60,53,49,49,45,43,82,75,66,30.22,30.12,2,0,2,0.00
2013-6-6,78,62,45,52,44,39,83,55,29,30.13,30.04,2,0,2,0.00
2013-6-7,80,67,55,50,44,39,63,44,31,30.12,29.85,4,0,4,0.00
2013-6-8,76,68,61,52,45,40,53,43,35,30.07,29.80,4,0,4,0.00
2013-6-9,87,69,54,54,44,39,62,44,22,30.06,29.94,3,0,3,0.00
2013-6-10,94,83,66,53,44,38,50,26,17,29.99,29.88,3,0,3,0.00
2013-6-11,95,80,62,50,36,24,56,25,6,30.01,29.81,4,0,4,0.00
2013-6-12,90,75,62,52,38,30,47,28,16,30.15,30.01,4,0,4,0.00
2013-6-13,80,68,61,64,54,50,72,61,46,30.15,29.94,2,0,2,0.00
2013-6-14,87,74,60,55,48,42,69,43,23,30.02,29.92,5,0,5,0.00
2013-6-15,79,70,60,53,48,44,59,47,38,30.11,30.00,3,0,3,0.00
2013-6-16,78,69,59,56,46,36,66,46,25,30.16,30.05,4,0,4,0.00
2013-6-17,77,67,56,58,48,39,68,52,41,30.19,30.05,3,0,3,0.23
2013-6-18,81,68,56,56,52,48,76,57,33,30.16,29.91,3,0,3,0.00
2013-6-19,89,72,55,55,47,34,72,46,18,30.03,29.73,4,0,4,0.00
2013-6-20,86,74,58,46,38,25,51,28,17,29.97,29.81,3,0,3,0.00
2013-6-21,88,75,63,57,45,30,56,36,18,29.96,29.83,5,0,5,0.00
2013-6-22,81,69,59,57,48,40,58,47,27,30.00,29.80,4,0,4,0.00
2013-6-23,78,68,55,52,47,39,65,47,35,30.06,29.87,4,0,4,0.00
2013-6-24,85,73,61,52,44,29,60,38,19,29.96,29.80,3,0,3,0.00
2013-6-25,89,78,65,43,37,30,36,24,17,30.04,29.86,5,0,5,0.00
2013-6-26,93,80,66,49,42,36,43,28,17,30.11,30.02,3,0,3,0.00
2013-6-27,94,83,70,54,44,37,52,27,17,30.25,30.09,3,0,3,0.00
2013-6-28,89,76,64,61,52,43,74,45,32,30.29,30.14,4,0,4,0.22
2013-6-29,78,70,62,60,56,52,74,61,45,30.24,30.11,2,0,2,0.00
2013-6-30,76,69,64,60,56,54,73,63,51,30.21,30.15,3,0,3,0.00
2013-7-1,78,69,59,58,54,49,73,59,46,30.28,30.18,3,0,3,0.00
2013-7-2,81,70,57,57,52,48,73,54,37,30.26,30.12,4,0,4,0.00
2013-7-3,86,72,59,55,49,45,63,46,29,30.13,29.95,3,0,3,0.00
2013-7-4,87,75,63,57,50,44,66,41,29,30.02,29.94,3,0,3,0.00
2013-7-5,82,74,68,57,53,46,58,49,39,29.97,29.89,3,0,3,0.00
2013-7-6,90,78,68,55,51,46,59,41,25,30.02,29.89,5,1,6,0.01
2013-7-7,87,77,67,58,53,48,57,45,31,30.10,29.99,3,0,3,0.00
2013-7-8,91,79,66,59,51,45,67,42,21,30.12,30.04,5,0,5,0.00
2013-7-9,91,80,70,55,48,43,53,34,22,30.22,30.12,3,0,3,0.00
2013-7-10,89,76,64,59,52,44,59,44,28,30.25,30.04,3,0,3,0.00
2013-7-11,95,79,64,60,54,47,67,45,20,30.12,29.90,5,0,5,0.00
2013-7-12,90,76,68,60,55,49,70,50,30,30.11,29.96,4,0,4,0.00
2013-7-13,84,71,66,64,58,54,74,65,46,30.20,30.07,5,0,5,0.01
2013-7-14,76,70,63,62,58,52,78,66,56,30.24,30.10,3,0,3,0.00
2013-7-15,76,69,63,66,60,56,90,75,64,30.20,30.11,3,0,3,0.13
2013-7-16,82,69,56,59,54,51,85,61,38,30.20,30.12,2,0,2,0.00
2013-7-17,85,72,58,60,55,49,74,56,38,30.22,30.10,2,0,2,0.00
2013-7-18,89,74,64,60,55,50,71,54,32,30.18,30.09,3,0,3,0.00
2013-7-19,81,74,66,59,57,54,69,55,42,30.19,30.09,3,0,3,0.00
2013-7-20,86,72,60,59,54,50,75,55,36,30.10,29.99,3,0,3,0.00
2013-7-21,84,72,59,61,55,45,73,57,33,30.03,29.93,4,0,4,0.00
2013-7-22,89,78,63,59,54,38,66,46,25,30.04,29.93,2,0,2,0.00
2013-7-23,88,78,69,58,48,31,55,36,21,30.17,29.98,3,0,3,0.00
2013-7-24,80,72,66,62,55,50,68,56,40,30.21,30.06,3,0,4,0.00
2013-7-25,74,66,61,60,55,52,81,69,56,30.25,30.08,4,0,4,0.21
2013-7-26,77,68,62,63,54,50,76,62,46,30.26,30.13,4,0,4,0.06
2013-7-27,74,64,54,60,54,48,86,71,57,30.16,30.05,3,0,3,0.20
2013-7-28,69,63,60,62,58,57,90,85,76,30.10,29.95,2,0,2,0.04
2013-7-29,69,64,59,61,57,52,91,80,61,30.17,29.96,2,0,2,0.00
2013-7-30,83,70,59,59,55,52,79,60,39,30.23,30.14,3,0,3,0.00
2013-7-31,85,72,60,59,54,50,73,55,31,30.30,30.14,4,0,4,0.00
2013-8-1,84,69,60,66,57,52,80,68,43,30.22,30.00,2,0,2,0.12
2013-8-2,90,74,60,61,55,47,78,55,26,30.07,29.97,3,0,3,0.00
2013-8-3,86,71,64,62,56,50,76,60,35,30.27,30.06,6,0,6,0.08
2013-8-4,83,70,58,60,53,49,76,57,34,30.20,30.08,3,0,3,0.00
2013-8-5,81,70,61,58,53,46,70,55,40,30.12,30.02,3,0,3,0.04
2013-8-6,80,69,59,60,53,46,77,57,38,30.07,29.99,3,0,3,0.00
2013-8-7,74,66,61,58,53,47,74,63,46,30.12,30.02,2,0,2,0.00
2013-8-8,72,64,57,60,54,49,83,69,49,30.16,30.03,2,0,3,0.00
2013-8-9,77,66,57,56,51,46,75,59,42,30.17,30.11,3,0,3,0.00
2013-8-10,84,67,56,58,51,44,73,57,31,30.20,30.08,3,0,3,0.14
2013-8-11,78,69,59,55,52,49,72,55,40,30.17,30.11,2,0,2,0.00
2013-8-12,78,67,58,57,53,48,81,61,40,30.24,30.08,4,0,4,0.30
2013-8-13,73,65,56,56,52,47,80,63,51,30.21,30.10,3,0,3,0.01
2013-8-14,78,65,54,56,50,46,78,59,40,30.18,30.06,2,0,2,0.00
2013-8-15,80,68,54,54,49,45,72,53,36,30.14,30.05,3,0,3,0.00
2013-8-16,86,73,59,55,49,41,65,44,28,30.13,30.05,2,0,2,0.00
2013-8-17,89,74,59,56,49,40,73,45,21,30.11,29.98,2,0,2,0.03
2013-8-18,84,72,59,60,49,40,71,46,29,30.09,30.01,4,0,4,0.00
2013-8-19,90,75,59,56,49,45,69,42,23,30.07,29.97,4,0,4,0.00
2013-8-20,93,79,67,57,47,41,55,34,19,30.01,29.93,4,0,4,0.25
2013-8-21,88,77,71,61,51,43,59,41,29,30.10,29.99,2,0,2,0.00
2013-8-22,79,70,64,62,56,52,70,60,53,30.16,29.77,3,0,3,0.00
2013-8-23,82,71,62,60,55,51,76,59,45,30.03,29.56,3,0,3,0.02
2013-8-24,80,72,64,58,54,48,65,53,42,30.06,29.59,2,0,2,0.00
2013-8-25,84,74,62,57,54,49,71,50,38,30.10,29.64,2,0,2,0.00
2013-8-26,87,73,64,61,56,52,70,56,37,30.10,29.70,3,0,3,0.01
2013-8-27,89,77,68,60,56,52,68,49,36,30.10,29.61,2,0,2,0.00
2013-8-28,89,78,70,58,54,49,58,46,34,30.08,29.89,2,0,2,0.00
2013-8-29,90,79,72,57,50,47,53,38,26,30.12,30.00,2,0,2,0.00
2013-8-30,85,77,68,56,52,48,60,43,35,30.14,30.01,1,0,1,0.00
2013-8-31,77,77,77,50,50,50,39,39,39,30.03,30.03,1,1,1,0.00
2013-9-1,76,73,68,60,58,55,66,61,56,30.21,30.12,3,0,3,0.52
2013-9-2,87,72,61,61,55,50,76,58,34,30.16,30.05,2,0,2,0.00
2013-9-3,91,82,65,59,55,51,65,40,30,30.16,30.07,3,0,3,0.00
2013-9-4,77,72,69,54,51,50,58,47,42,30.19,30.14,1,0,1,0.00
2013-9-5,88,76,64,59,54,49,65,47,34,30.22,30.14,2,0,2,0.00
2013-9-6,92,78,66,57,52,47,63,41,27,30.18,30.08,3,0,5,0.00
2013-9-7,91,78,65,55,51,47,60,40,25,30.15,30.04,3,0,3,0.00
2013-9-8,86,75,67,53,50,45,53,41,30,30.07,29.93,3,0,3,0.01
2013-9-9,82,69,60,59,53,48,86,58,39,30.09,29.94,3,0,3,0.16
2013-9-10,64,61,59,59,57,56,90,88,83,30.21,30.07,1,0,1,0.00
2013-9-11,62,61,59,61,59,58,97,95,90,30.22,30.17,2,0,2,3.12
2013-9-12,62,60,59,62,60,58,99,98,96,30.28,30.20,2,0,2,4.42
2013-9-13,69,62,58,65,61,58,99,94,84,30.20,29.94,2,0,2,0.22
2013-9-14,68,63,58,62,58,54,92,84,76,30.06,29.93,2,0,2,0.05
2013-9-15,61,58,56,58,56,55,97,94,89,30.27,30.05,2,0,2,0.97
2013-9-16,68,62,54,62,58,54,98,88,79,30.24,30.06,2,0,2,0.07
2013-9-17,79,60,52,62,53,48,95,80,46,30.08,29.89,1,0,1,0.00
2013-9-18,79,70,59,56,50,44,68,48,41,29.95,29.85,6,1,6,0.00
2013-9-19,67,61,54,48,46,43,73,58,44,30.18,29.92,2,0,2,0.00
2013-9-20,70,65,52,50,48,44,75,56,47,30.16,30.05,3,0,3,0.00
2013-9-21,75,62,48,57,47,40,78,59,45,30.05,29.85,2,0,2,0.00
2013-9-22,74,65,58,55,48,41,77,57,42,29.85,29.68,2,0,2,0.03
2013-9-23,67,61,52,51,40,35,88,47,33,30.05,29.64,0,0,0,0.29
2013-9-24,72,63,45,48,43,36,72,49,34,30.12,29.94,0,0,0,0.00
2013-9-25,75,68,56,52,47,38,62,48,41,29.78,29.56,0,0,0,0.00
2013-9-26,67,58,48,48,44,38,73,60,43,29.84,29.63,0,0,0,0.00
2013-9-27,57,48,44,48,44,40,88,85,64,30.00,29.78,0,0,0,0.27
2013-9-28,67,58,37,45,40,34,87,52,35,30.12,30.02,0,0,0,0.00
2013-9-29,72,58,42,46,36,27,74,47,21,30.10,29.92,0,0,0,0.00
2013-9-30,80,65,55,51,41,34,60,43,30,29.94,29.83,0,0,0,0.00
2013-10-1,71,62,52,49,41,33,57,47,35,30.10,29.94,0,0,0,0.00
2013-10-2,75,61,48,48,42,37,69,52,32,30.00,29.91,0,0,0,0.00
2013-10-3,62,53,45,46,42,37,82,67,54,29.96,29.79,0,0,0,0.03
2013-10-4,50,41,34,45,36,29,86,82,78,30.15,29.82,0,0,0,0.51
2013-10-5,62,46,32,33,28,18,83,53,28,30.17,30.08,0,0,0,0.00
2013-10-6,68,54,40,40,32,21,61,44,31,30.22,30.14,0,0,0,0.01
2013-10-7,74,57,40,46,38,31,75,52,32,30.17,29.93,0,0,0,0.00
2013-10-8,75,62,53,45,38,31,60,41,25,29.94,29.78,0,0,0,0.00
2013-10-9,64,57,53,44,39,33,66,51,40,29.99,29.84,0,0,0,0.00
2013-10-10,59,52,47,48,44,41,81,73,65,29.97,29.60,0,0,0,0.04
2013-10-11,62,55,47,42,35,30,80,49,37,30.04,29.52,0,0,0,0.00
2013-10-12,56,48,45,42,38,36,75,70,59,30.16,30.05,0,0,0,0.00
2013-10-13,61,51,38,46,41,33,81,68,55,30.12,29.89,0,0,0,0.00
2013-10-14,54,48,43,42,38,33,79,68,58,30.14,29.83,0,0,0,0.02
2013-10-15,44,41,38,33,30,27,68,63,58,30.25,30.14,0,0,0,0.00
2013-10-16,55,42,31,37,30,24,80,64,47,30.16,29.99,0,0,0,0.00
2013-10-17,50,42,36,35,31,26,75,65,55,30.10,30.01,0,0,0,0.00
2013-10-18,48,38,34,36,31,27,84,77,58,30.15,30.04,0,0,0,0.27
2013-10-19,65,46,32,35,29,26,80,56,29,30.08,29.90,0,0,0,0.00
2013-10-20,52,47,41,36,31,27,74,54,40,30.05,29.87,0,0,0,0.08
2013-11-4,34,33,32,19,19,18,57,56,55,29.90,29.89,0,0,0,0.00
2013-11-5,47,36,27,24,17,9,67,48,25,30.09,29.89,0,0,0,0.00
2013-11-6,52,39,27,22,17,9,57,42,28,30.26,30.06,0,0,0,0.00
2013-11-7,55,42,30,30,24,17,63,50,38,30.30,29.97,0,0,0,0.00
2013-11-8,66,55,34,27,22,13,68,32,20,29.98,29.77,0,0,0,0.00
2013-11-9,62,51,39,34,28,20,62,43,24,30.21,29.98,0,0,0,0.00
2013-11-10,67,49,34,34,27,23,71,46,22,30.20,30.11,0,0,0,0.00
2013-11-11,66,46,34,33,26,22,71,49,23,30.54,30.15,0,0,0,0.00
2013-11-12,56,43,32,37,29,24,73,60,47,30.53,30.30,0,0,0,0.00
2013-11-13,68,52,35,32,23,17,62,35,18,30.31,30.00,0,0,0,0.00
2013-11-14,58,50,40,35,28,22,54,43,28,30.08,29.77,0,0,0,0.00
2013-11-15,64,50,33,28,22,17,64,36,18,29.77,29.53,0,0,0,0.00
2013-11-16,58,47,37,31,23,18,63,40,25,29.58,29.38,0,0,0,0.00
2013-11-17,58,45,34,24,19,15,53,37,21,30.04,29.58,0,0,0,0.00
2013-11-18,65,44,28,28,19,14,64,40,18,30.11,29.99,0,0,0,0.00
2013-11-19,59,48,34,30,23,14,49,39,29,29.99,29.74,0,0,0,0.00
2013-11-20,60,51,33,32,28,22,65,42,29,30.02,29.78,0,0,0,0.00
2013-11-21,33,21,17,24,13,10,75,71,66,30.45,30.02,1,0,1,0.00
2013-11-22,37,29,20,24,18,12,76,66,53,30.48,30.34,2,0,2,0.00
2013-11-23,36,30,27,24,20,17,76,66,54,30.48,30.22,2,0,2,0.00
2013-11-24,38,32,25,28,23,18,78,72,65,30.22,29.93,2,0,2,0.01
2013-11-25,42,37,31,28,26,23,75,65,53,30.24,30.00,3,0,3,0.00
2013-11-26,50,38,29,28,23,19,75,57,35,30.31,30.18,4,0,4,0.00
2013-11-27,60,41,26,34,24,18,76,53,28,30.18,30.00,5,0,5,0.00
2013-11-28,47,38,30,28,24,20,67,57,48,30.17,30.10,2,0,2,0.00